KCLW

Details ICAO KCLW (CLW)
Name CLEARWATER AIR PARK
Region United States
Timezone America/New_York (UTC-5.0)
Plans Departing 6
Arriving 8
Stats Elevation 71 ft / 22 m (AMSL)
Location 27.976686° -82.758741°
Runways 1
Magnetic Variation 5.411° W
Sunrise 2017-12-13 12:15:07 UTC / 2017-12-13 07:15:07 Local
Sunset 2017-12-13 22:38:24 UTC / 2017-12-13 17:38:24 Local
Advertisement - Login to hide

Runways

ID Width Length Bearing (true) Bearing (mag) Surface Threshold Offset Overrun Length
16 75 ft / 23 m 3,317 ft / 1,011 m 154.76° 160.17° Asphalt 300 ft / 91 m 0 ft / 0 m
34 75 ft / 23 m 3,317 ft / 1,011 m 334.76° 340.17° Asphalt 650 ft / 198 m 0 ft / 0 m

Map

Weather


0- 5 10 15 20 25 30 35+ Temperature / ° C

Clouds and Precipitation
Forecast for 2017-12-13 18:00 UTC. Updated 6 minutes ago

Ground ~20,000 ft ~40,000 ft Winds

METAR

KCLW 131315Z AUTO 00000KT 10SM CLR 10/03 A3013 RMK AO2

TAF

Not found

Frequencies

Unicom 123.00 MHz CTAF/UNICOM
Approach 125.30 MHz TAMPA APP/DEP
Warning: Do not use this data for real-world aviation or navigation. No guarantee of current accuracy is given.